createdAt,value
2019-02-07T00:02:18.043Z,18.10
2019-02-07T00:04:48.558Z,18.93
2019-02-07T00:07:19.160Z,19.37
2019-02-07T00:09:49.709Z,20.40
2019-02-07T00:12:19.955Z,20.43
2019-02-07T00:14:50.269Z,19.20
2019-02-07T00:17:20.679Z,20.20
2019-02-07T00:19:51.831Z,18.73
2019-02-07T00:22:22.273Z,19.53
2019-02-07T00:24:52.513Z,19.17
2019-02-07T00:27:23.164Z,18.80
2019-02-07T00:29:53.745Z,20.43
2019-02-07T00:32:23.945Z,20.43
2019-02-07T00:34:54.149Z,19.53
2019-02-07T00:37:24.630Z,19.57
2019-02-07T00:39:54.836Z,19.87
2019-02-07T00:42:25.409Z,18.80
2019-02-07T00:44:55.640Z,18.90
2019-02-07T00:47:26.171Z,18.80
2019-02-07T00:49:56.608Z,18.47
2019-02-07T00:52:26.861Z,18.80
2019-02-07T00:54:57.391Z,19.53
2019-02-07T00:57:27.603Z,19.10
2019-02-07T01:00:01.030Z,19.17
2019-02-07T01:02:31.648Z,19.57
2019-02-07T01:05:01.849Z,18.63
2019-02-07T01:07:32.042Z,19.10
2019-02-07T01:10:02.686Z,19.67
2019-02-07T01:12:32.920Z,19.63
2019-02-07T01:15:03.185Z,20.67
2019-02-07T01:17:33.463Z,20.80
2019-02-07T01:20:05.779Z,19.97
2019-02-07T01:22:36.025Z,19.73
2019-02-07T01:25:07.966Z,18.43
2019-02-07T01:27:38.200Z,19.40
2019-02-07T01:30:10.419Z,18.90
2019-02-07T01:32:40.729Z,17.90
2019-02-07T01:35:10.969Z,18.07
2019-02-07T01:37:41.195Z,17.77
2019-02-07T01:40:14.064Z,16.40
2019-02-07T01:42:44.320Z,16.13
2019-02-07T01:45:16.977Z,17.13
2019-02-07T01:47:47.217Z,16.33
2019-02-07T01:50:19.367Z,16.73
2019-02-07T01:52:49.887Z,16.30
2019-02-07T01:55:20.503Z,15.17
2019-02-07T01:57:50.751Z,15.70
2019-02-07T02:00:21.728Z,14.77
2019-02-07T02:02:52.007Z,15.53
2019-02-07T02:05:22.628Z,14.53
2019-02-07T02:07:52.863Z,14.50
2019-02-07T02:10:24.992Z,14.03
2019-02-07T02:12:55.275Z,13.73
2019-02-07T02:15:25.525Z,13.17
2019-02-07T02:17:56.087Z,12.13
2019-02-07T02:20:27.013Z,12.10
2019-02-07T02:22:57.396Z,12.23
2019-02-07T02:25:27.717Z,11.53
2019-02-07T02:27:58.202Z,11.90
2019-02-07T02:30:33.458Z,10.23
2019-02-07T02:33:04.649Z,10.67
2019-02-07T02:35:35.254Z,10.30
2019-02-07T02:38:05.768Z,9.97
2019-02-07T02:40:36.031Z,9.90
2019-02-07T02:43:06.296Z,8.80
2019-02-07T02:45:37.877Z,9.20
2019-02-07T02:48:08.324Z,9.00
2019-02-07T02:50:38.945Z,8.40
2019-02-07T02:53:09.168Z,8.27
2019-02-07T02:55:42.010Z,8.60
2019-02-07T02:58:12.228Z,8.57
2019-02-07T03:01:00.408Z,7.67
2019-02-07T03:03:47.779Z,7.00
2019-02-07T03:06:42.716Z,7.23
2019-02-07T03:09:50.334Z,8.20
2019-02-07T03:12:42.282Z,7.90
2019-02-07T03:15:29.930Z,7.30
2019-02-07T03:18:28.252Z,6.60
2019-02-07T03:21:20.266Z,6.27
2019-02-07T03:24:08.210Z,5.60
2019-02-07T03:27:09.429Z,5.50
2019-02-07T03:30:01.768Z,5.37
2019-02-07T03:32:50.931Z,5.30
2019-02-07T03:35:58.530Z,5.30
2019-02-07T03:38:46.335Z,4.70
2019-02-07T03:41:31.127Z,5.00
2019-02-07T03:44:13.640Z,5.00
2019-02-07T03:47:02.966Z,4.60
2019-02-07T03:49:41.927Z,5.10
2019-02-07T03:52:37.159Z,4.97
2019-02-07T03:55:20.978Z,5.07
2019-02-07T03:58:25.250Z,4.93
2019-02-07T04:01:13.201Z,4.90
2019-02-07T04:03:52.321Z,4.73
2019-02-07T04:06:36.820Z,4.73
2019-02-07T04:09:26.854Z,5.10
2019-02-07T04:12:21.207Z,4.33
2019-02-07T04:15:15.811Z,4.70
2019-02-07T04:18:02.772Z,4.70
2019-02-07T04:20:50.587Z,4.10
2019-02-07T04:23:51.813Z,3.97
2019-02-07T04:26:49.921Z,3.90
2019-02-07T04:29:26.550Z,3.87
2019-02-07T04:32:22.221Z,4.00
2019-02-07T04:35:29.512Z,3.70
2019-02-07T04:38:14.375Z,3.37
2019-02-07T04:41:01.311Z,3.57
2019-02-07T04:43:50.509Z,4.33
2019-02-07T04:46:35.921Z,3.67
2019-02-07T04:49:24.009Z,3.97
2019-02-07T04:52:13.481Z,4.30
2019-02-07T04:55:01.517Z,4.10
2019-02-07T04:57:53.709Z,3.97
2019-02-07T05:00:34.548Z,4.07
2019-02-07T05:03:42.121Z,4.70
2019-02-07T05:06:43.578Z,3.97
2019-02-07T05:09:32.049Z,4.50
2019-02-07T05:12:21.172Z,3.63
2019-02-07T05:15:13.052Z,4.13
2019-02-07T05:18:02.491Z,4.67
2019-02-07T05:20:49.494Z,4.63
2019-02-07T05:23:41.638Z,4.70
2019-02-07T05:26:45.988Z,5.23
2019-02-07T05:29:34.257Z,4.93
2019-02-07T05:32:11.002Z,6.10
2019-02-07T05:34:56.188Z,4.90
2019-02-07T05:37:57.176Z,5.23
2019-02-07T05:40:38.545Z,5.57
2019-02-07T05:43:33.922Z,4.47
2019-02-07T05:46:38.321Z,5.33
2019-02-07T05:49:33.241Z,4.30
2019-02-07T05:52:34.760Z,4.70
2019-02-07T05:55:33.999Z,4.30
2019-02-07T05:58:16.553Z,4.43
2019-02-07T06:01:05.696Z,5.03
2019-02-07T06:03:42.778Z,4.87
2019-02-07T06:06:20.738Z,4.73
2019-02-07T06:09:09.963Z,4.30
2019-02-07T06:11:58.002Z,3.97
2019-02-07T06:14:42.533Z,4.47
2019-02-07T06:17:34.528Z,3.80
2019-02-07T06:20:23.444Z,3.90
2019-02-07T06:23:18.924Z,3.97
2019-02-07T06:25:58.751Z,3.97
2019-02-07T06:28:46.781Z,3.67
2019-02-07T06:31:34.646Z,4.27
2019-02-07T06:34:29.011Z,4.10
2019-02-07T06:37:19.723Z,3.90
2019-02-07T06:40:09.212Z,3.63
2019-02-07T06:42:58.887Z,3.83
2019-02-07T06:45:54.063Z,3.73
2019-02-07T06:48:49.365Z,3.37
2019-02-07T06:51:36.824Z,3.90
2019-02-07T06:54:17.260Z,3.80
2019-02-07T06:57:24.907Z,3.50
2019-02-07T07:00:22.851Z,4.27
2019-02-07T07:03:20.811Z,3.63
2019-02-07T07:06:08.899Z,3.67
2019-02-07T07:09:09.593Z,4.10
2019-02-07T07:11:57.608Z,3.90
2019-02-07T07:14:50.181Z,4.30
2019-02-07T07:17:45.204Z,4.23
2019-02-07T07:20:33.166Z,4.10
2019-02-07T07:23:16.673Z,4.20
2019-02-07T07:26:06.094Z,4.10
2019-02-07T07:28:54.131Z,4.27
2019-02-07T07:31:43.812Z,3.90
2019-02-07T07:34:27.014Z,4.20
2019-02-07T07:37:16.819Z,4.33
2019-02-07T07:39:56.939Z,4.10
2019-02-07T07:42:49.306Z,3.80
2019-02-07T07:45:39.177Z,3.67
2019-02-07T07:48:28.379Z,4.37
2019-02-07T07:51:36.056Z,4.20
2019-02-07T07:54:25.246Z,3.97
2019-02-07T07:57:20.712Z,3.53
2019-02-07T08:00:08.510Z,3.70
2019-02-07T08:02:54.740Z,3.30
2019-02-07T08:05:42.694Z,3.43
2019-02-07T08:08:31.330Z,3.50
2019-02-07T08:11:15.196Z,3.80
2019-02-07T08:14:03.117Z,4.03
2019-02-07T08:16:51.305Z,3.90
2019-02-07T08:19:39.133Z,3.60
2019-02-07T08:22:34.240Z,3.47
2019-02-07T08:25:20.536Z,3.40
2019-02-07T08:28:16.117Z,3.23
2019-02-07T08:31:04.086Z,3.67
2019-02-07T08:33:56.081Z,3.33
2019-02-07T08:36:44.692Z,3.53
2019-02-07T08:39:33.296Z,3.23
2019-02-07T08:42:41.151Z,3.10
2019-02-07T08:45:48.963Z,3.13
2019-02-07T08:48:53.618Z,3.23
2019-02-07T08:51:42.897Z,3.27
2019-02-07T08:54:44.493Z,3.87
2019-02-07T08:57:37.951Z,3.70
2019-02-07T09:00:39.767Z,3.87
2019-02-07T09:03:38.237Z,3.40
2019-02-07T09:06:17.839Z,3.57
2019-02-07T09:09:05.919Z,4.00
2019-02-07T09:11:53.767Z,4.30
2019-02-07T09:14:43.097Z,4.27
2019-02-07T09:17:20.337Z,3.80
2019-02-07T09:20:17.337Z,4.17
2019-02-07T09:23:01.952Z,3.80
2019-02-07T09:25:54.181Z,4.37
2019-02-07T09:28:42.493Z,3.90
2019-02-07T09:31:28.766Z,3.60
2019-02-07T09:34:17.920Z,3.53
2019-02-07T09:37:06.229Z,3.30
2019-02-07T09:39:54.245Z,2.80
2019-02-07T09:42:46.464Z,3.17
2019-02-07T09:45:41.666Z,3.27
2019-02-07T09:48:29.434Z,3.00
2019-02-07T09:51:34.228Z,2.83
2019-02-07T09:54:21.203Z,3.13
2019-02-07T09:57:15.483Z,3.13
2019-02-07T10:00:04.912Z,3.07
2019-02-07T10:02:57.056Z,2.83
2019-02-07T10:05:52.421Z,2.73
2019-02-07T10:08:40.240Z,3.47
2019-02-07T10:11:22.308Z,4.17
2019-02-07T10:14:11.497Z,3.40
2019-02-07T10:17:10.401Z,3.53
2019-02-07T10:19:58.174Z,3.43
2019-02-07T10:22:47.480Z,3.07
2019-02-07T10:25:37.350Z,3.53
2019-02-07T10:28:25.546Z,3.33
2019-02-07T10:31:09.171Z,3.30
2019-02-07T10:33:58.717Z,4.37
2019-02-07T10:37:00.404Z,3.63
2019-02-07T10:39:49.623Z,3.87
2019-02-07T10:42:57.242Z,3.63
2019-02-07T10:45:45.601Z,3.40
2019-02-07T10:48:44.452Z,3.77
2019-02-07T10:51:29.973Z,3.37
2019-02-07T10:54:18.181Z,3.97
2019-02-07T10:57:08.644Z,4.07
2019-02-07T10:59:56.607Z,3.73
2019-02-07T11:02:54.531Z,3.47
2019-02-07T11:05:46.798Z,3.17
2019-02-07T11:08:44.770Z,3.00
2019-02-07T11:11:21.485Z,3.07
2019-02-07T11:14:20.306Z,2.73
2019-02-07T11:17:09.581Z,2.53
2019-02-07T11:20:10.957Z,3.07
2019-02-07T11:22:53.233Z,2.33
2019-02-07T11:25:42.451Z,2.20
2019-02-07T11:28:30.439Z,2.20
2019-02-07T11:31:07.909Z,2.20
2019-02-07T11:33:47.148Z,2.20
2019-02-07T11:36:53.775Z,2.47
2019-02-07T11:39:34.860Z,2.23
2019-02-07T11:42:30.092Z,2.20
2019-02-07T11:45:13.428Z,2.53
2019-02-07T11:48:05.496Z,2.73
2019-02-07T11:50:53.444Z,2.90
2019-02-07T11:53:41.353Z,2.53
2019-02-07T11:56:36.643Z,2.77
2019-02-07T11:59:24.753Z,2.50
2019-02-07T12:02:17.175Z,3.13
2019-02-07T12:04:58.568Z,2.37
2019-02-07T12:07:51.150Z,2.80
2019-02-07T12:10:37.536Z,2.93
2019-02-07T12:13:25.692Z,2.60
2019-02-07T12:16:30.220Z,2.60
2019-02-07T12:19:20.345Z,2.07
2019-02-07T12:22:15.600Z,2.40
2019-02-07T12:25:11.118Z,2.87
2019-02-07T12:28:09.679Z,2.40
2019-02-07T12:30:58.731Z,2.30
2019-02-07T12:33:40.168Z,1.83
2019-02-07T12:36:44.447Z,2.30
2019-02-07T12:39:32.817Z,1.80
2019-02-07T12:42:20.618Z,1.70
2019-02-07T12:45:14.346Z,1.70
2019-02-07T12:48:06.774Z,2.00
2019-02-07T12:51:01.947Z,2.00
2019-02-07T12:53:52.120Z,2.20
2019-02-07T12:56:40.058Z,2.30
2019-02-07T12:59:27.967Z,1.90
2019-02-07T13:02:16.703Z,2.00
2019-02-07T13:05:18.199Z,2.00
2019-02-07T13:08:16.297Z,2.00
2019-02-07T13:11:18.249Z,2.10
2019-02-07T13:14:07.482Z,1.80
2019-02-07T13:17:05.818Z,1.93
2019-02-07T13:19:55.350Z,2.13
2019-02-07T13:22:47.982Z,2.40
2019-02-07T13:25:44.653Z,2.20
2019-02-07T13:28:32.705Z,2.10
2019-02-07T13:31:24.160Z,2.40
2019-02-07T13:34:11.972Z,2.40
2019-02-07T13:37:02.001Z,2.63
2019-02-07T13:39:50.005Z,2.37
2019-02-07T13:42:37.983Z,2.73
2019-02-07T13:45:28.088Z,3.27
2019-02-07T13:48:20.447Z,2.70
2019-02-07T13:51:27.986Z,3.30
2019-02-07T13:54:19.968Z,2.40
2019-02-07T13:57:12.536Z,2.47
2019-02-07T13:59:55.729Z,2.30
2019-02-07T14:02:57.603Z,2.10
2019-02-07T14:05:53.045Z,1.87
2019-02-07T14:08:48.423Z,2.03
2019-02-07T14:11:49.705Z,2.37
2019-02-07T14:14:38.143Z,2.00
2019-02-07T14:17:27.344Z,2.57
2019-02-07T14:20:16.490Z,2.63
2019-02-07T14:23:04.084Z,2.20
2019-02-07T14:25:57.305Z,2.03
2019-02-07T14:28:45.538Z,2.50
2019-02-07T14:31:35.462Z,2.17
2019-02-07T14:34:23.572Z,2.60
2019-02-07T14:37:19.110Z,2.30
2019-02-07T14:40:11.388Z,2.57
2019-02-07T14:43:06.420Z,2.00
2019-02-07T14:45:58.427Z,1.93
2019-02-07T14:48:29.011Z,2.80
2019-02-07T14:50:59.234Z,2.03
2019-02-07T14:53:29.496Z,2.40
2019-02-07T14:56:00.132Z,2.10
2019-02-07T14:58:30.374Z,2.37
2019-02-07T15:01:00.743Z,2.30
2019-02-07T15:03:31.699Z,2.20
2019-02-07T15:06:02.005Z,2.23
2019-02-07T15:08:32.158Z,2.30
2019-02-07T15:11:02.810Z,2.03
2019-02-07T15:13:33.012Z,1.87
2019-02-07T15:16:04.337Z,2.03
2019-02-07T15:18:34.814Z,2.30
2019-02-07T15:21:06.012Z,1.90
2019-02-07T15:23:36.854Z,2.27
2019-02-07T15:26:08.805Z,1.70
2019-02-07T15:28:39.043Z,2.40
2019-02-07T15:31:09.237Z,2.37
2019-02-07T15:33:39.499Z,2.20
2019-02-07T15:36:11.156Z,2.43
2019-02-07T15:38:41.817Z,2.30
2019-02-07T15:41:12.147Z,2.63
2019-02-07T15:43:42.804Z,2.00
2019-02-07T15:46:13.038Z,2.10
2019-02-07T15:48:43.299Z,1.90
2019-02-07T15:51:13.944Z,2.50
2019-02-07T15:53:44.790Z,2.10
2019-02-07T15:56:15.023Z,2.20
2019-02-07T15:59:03.580Z,2.30
2019-02-07T16:01:38.640Z,2.20
2019-02-07T16:04:12.954Z,2.10
2019-02-07T16:06:43.842Z,1.80
2019-02-07T16:09:15.126Z,2.10
2019-02-07T16:11:45.437Z,1.97
2019-02-07T16:14:15.730Z,2.30
2019-02-07T16:16:45.982Z,1.93
2019-02-07T16:19:16.557Z,2.57
2019-02-07T16:21:46.802Z,2.27
2019-02-07T16:24:17.873Z,2.13
2019-02-07T16:26:48.150Z,2.47
2019-02-07T16:29:18.797Z,2.23
2019-02-07T16:31:49.478Z,2.47
2019-02-07T16:34:19.739Z,2.43
2019-02-07T16:36:50.418Z,2.57
2019-02-07T16:39:21.440Z,2.10
2019-02-07T16:41:51.679Z,2.50
2019-02-07T16:44:22.078Z,2.60
2019-02-07T16:46:54.525Z,2.63
2019-02-07T16:49:24.821Z,2.20
2019-02-07T16:51:55.510Z,2.60
2019-02-07T16:54:25.777Z,2.73
2019-02-07T16:56:56.088Z,2.13
2019-02-07T16:59:26.675Z,2.30
2019-02-07T17:01:56.907Z,2.30
2019-02-07T17:04:27.367Z,2.27
2019-02-07T17:06:57.876Z,2.47
2019-02-07T17:09:31.920Z,2.30
2019-02-07T17:12:02.243Z,3.07
2019-02-07T17:14:32.566Z,2.70
2019-02-07T17:17:05.486Z,2.40
2019-02-07T17:19:35.541Z,2.40
2019-02-07T17:22:05.709Z,2.43
2019-02-07T17:24:35.947Z,2.40
2019-02-07T17:27:06.614Z,2.23
2019-02-07T17:29:37.121Z,2.20
2019-02-07T17:32:07.353Z,2.60
2019-02-07T17:34:37.630Z,2.43
2019-02-07T17:37:08.155Z,2.30
2019-02-07T17:39:38.765Z,2.20
2019-02-07T17:42:21.545Z,2.90
2019-02-07T17:44:51.753Z,2.67
2019-02-07T17:47:21.958Z,2.60
2019-02-07T17:49:52.167Z,2.40
2019-02-07T17:52:22.776Z,2.33
2019-02-07T17:54:53.000Z,2.77
2019-02-07T17:57:23.295Z,2.43
2019-02-07T17:59:53.698Z,2.70
2019-02-07T18:02:23.964Z,2.80
2019-02-07T18:04:54.147Z,2.20
2019-02-07T18:07:24.674Z,2.67
2019-02-07T18:09:54.953Z,2.43
2019-02-07T18:12:25.169Z,3.07
2019-02-07T18:14:55.375Z,2.83
2019-02-07T18:17:26.299Z,2.97
2019-02-07T18:19:56.512Z,2.93
2019-02-07T18:22:27.354Z,2.73
2019-02-07T18:24:57.953Z,2.83
2019-02-07T18:27:28.696Z,2.80
2019-02-07T18:29:58.876Z,2.90
2019-02-07T18:32:29.483Z,2.63
2019-02-07T18:35:00.352Z,2.87
2019-02-07T18:37:30.852Z,2.30
2019-02-07T18:40:01.754Z,3.20
2019-02-07T18:42:32.058Z,2.70
2019-02-07T18:45:02.613Z,3.13
2019-02-07T18:47:32.848Z,3.00
2019-02-07T18:50:03.174Z,3.20
2019-02-07T18:52:33.404Z,3.07
2019-02-07T18:55:04.050Z,2.97
2019-02-07T18:57:34.311Z,3.30
2019-02-07T19:00:06.900Z,3.17
2019-02-07T19:02:37.340Z,2.87
2019-02-07T19:05:09.486Z,3.50
2019-02-07T19:07:39.700Z,3.73
2019-02-07T19:10:10.966Z,3.10
2019-02-07T19:12:41.166Z,2.80
2019-02-07T19:15:14.951Z,3.57
2019-02-07T19:17:45.208Z,3.10
2019-02-07T19:20:17.721Z,3.60
2019-02-07T19:22:48.431Z,3.70
2019-02-07T19:25:19.164Z,3.97
2019-02-07T19:27:49.689Z,3.33
2019-02-07T19:30:28.524Z,3.40
2019-02-07T19:32:59.206Z,3.20
2019-02-07T19:35:29.488Z,3.17
2019-02-07T19:37:59.810Z,3.23
2019-02-07T19:40:30.026Z,2.87
2019-02-07T19:43:01.366Z,3.53
2019-02-07T19:45:31.604Z,3.00
2019-02-07T19:48:01.835Z,3.40
2019-02-07T19:50:32.085Z,2.87
2019-02-07T19:53:02.899Z,2.70
2019-02-07T19:55:33.577Z,3.50
2019-02-07T19:58:03.990Z,3.00
2019-02-07T20:00:34.633Z,3.45
2019-02-07T20:03:05.627Z,2.83
2019-02-07T20:05:36.137Z,2.80
2019-02-07T20:08:06.444Z,3.10
2019-02-07T20:10:36.914Z,3.03
2019-02-07T20:13:07.467Z,3.10
2019-02-07T20:15:39.793Z,3.30
2019-02-07T20:18:10.773Z,3.00
2019-02-07T20:20:41.807Z,3.47
2019-02-07T20:23:12.618Z,3.40
2019-02-07T20:25:43.224Z,3.23
2019-02-07T20:28:13.431Z,3.37
2019-02-07T20:30:44.076Z,3.23
2019-02-07T20:33:14.317Z,3.43
2019-02-07T20:35:44.634Z,3.30
2019-02-07T20:38:14.856Z,3.10
2019-02-07T20:40:45.501Z,3.40
2019-02-07T20:43:15.876Z,2.83
2019-02-07T20:45:46.634Z,3.47
2019-02-07T20:48:17.429Z,3.00
2019-02-07T20:50:47.748Z,3.20
2019-02-07T20:53:18.187Z,3.10
2019-02-07T20:55:49.042Z,3.00
2019-02-07T20:58:19.314Z,3.07
2019-02-07T21:00:49.580Z,3.47
2019-02-07T21:03:20.491Z,3.13
2019-02-07T21:05:51.021Z,2.77
2019-02-07T21:08:21.528Z,3.40
2019-02-07T21:10:52.605Z,3.07
2019-02-07T21:13:23.132Z,3.50
2019-02-07T21:15:53.641Z,3.27
2019-02-07T21:18:24.406Z,2.90
2019-02-07T21:20:54.627Z,2.67
2019-02-07T21:23:24.821Z,2.90
2019-02-07T21:25:55.193Z,3.13
2019-02-07T21:28:25.705Z,2.67
2019-02-07T21:30:55.921Z,2.53
2019-02-07T21:33:26.129Z,2.77
2019-02-07T21:35:56.334Z,2.60
2019-02-07T21:38:27.449Z,2.80
2019-02-07T21:40:58.421Z,2.57
2019-02-07T21:43:29.001Z,2.50
2019-02-07T21:45:59.246Z,2.80
2019-02-07T21:48:29.582Z,2.83
2019-02-07T21:51:00.065Z,2.60
2019-02-07T21:53:30.596Z,2.40
2019-02-07T21:56:01.471Z,2.73
2019-02-07T21:58:31.673Z,2.93
2019-02-07T22:01:01.927Z,2.67
2019-02-07T22:03:32.107Z,2.50
2019-02-07T22:06:02.336Z,2.13
2019-02-07T22:08:32.588Z,2.57
2019-02-07T22:11:03.229Z,2.13
2019-02-07T22:13:33.523Z,2.63
2019-02-07T22:16:03.704Z,2.80
2019-02-07T22:18:33.998Z,2.60
2019-02-07T22:21:04.228Z,2.87
2019-02-07T22:26:19.317Z,2.60
2019-02-07T22:28:49.566Z,2.50
2019-02-07T22:31:19.808Z,2.57
2019-02-07T22:33:50.033Z,2.40
2019-02-07T22:36:20.337Z,2.70
2019-02-07T22:38:50.563Z,2.20
2019-02-07T22:41:20.777Z,2.20
2019-02-07T22:43:50.978Z,2.67
2019-02-07T22:46:21.197Z,2.70
2019-02-07T22:48:52.043Z,2.53
2019-02-07T22:51:22.257Z,2.37
2019-02-07T22:53:52.436Z,2.30
2019-02-07T22:56:22.974Z,2.20
2019-02-07T22:58:53.177Z,2.23
2019-02-07T23:02:01.376Z,2.20
2019-02-07T23:04:31.950Z,2.03
2019-02-07T23:07:02.918Z,2.77
2019-02-07T23:09:33.120Z,2.33
2019-02-07T23:12:03.311Z,2.07
2019-02-07T23:14:33.462Z,2.20
2019-02-07T23:17:03.673Z,2.30
2019-02-07T23:19:33.936Z,2.60
2019-02-07T23:22:04.722Z,2.30
2019-02-07T23:24:35.833Z,2.40
2019-02-07T23:27:06.292Z,2.07
2019-02-07T23:29:36.433Z,2.23
2019-02-07T23:32:06.878Z,2.23
2019-02-07T23:34:37.077Z,2.10
2019-02-07T23:37:07.384Z,2.00
2019-02-07T23:39:37.608Z,2.07
2019-02-07T23:42:07.800Z,2.30
2019-02-07T23:44:38.083Z,2.33
2019-02-07T23:47:08.263Z,2.07
2019-02-07T23:49:38.469Z,2.30
2019-02-07T23:52:09.155Z,2.10
2019-02-07T23:54:39.387Z,2.43
2019-02-07T23:57:09.599Z,2.23
2019-02-07T23:59:39.855Z,2.40
